Time;durP1;ratioP1;P1;durP2;ratioP2;P2;SDS_P1;SDS_P2;PMS_P1;PMS_P2;Temp;Humidity;BMP_temperature;BMP_pressure;BME280_temperature;BME280_humidity;BME280_pressure;Samples;Min_cycle;Max_cycle;Signal;HPM_P1;HPM_P2
2021/01/17 00:00:50;;;;;;;37.28;19.77;;;-0.30;99.90;;;;;;4963971;29;20007;-94
2021/01/17 00:06:38;;;;;;;33.53;17.98;;;-0.30;99.90;;;;;;4979803;28;20088;-93
2021/01/17 00:09:04;;;;;;;39.80;19.90;;;-0.30;99.90;;;;;;4962511;29;20035;-94
2021/01/17 00:11:31;;;;;;;35.95;18.80;;;-0.30;99.90;;;;;;4960325;29;20020;-94
2021/01/17 00:13:56;;;;;;;37.28;19.85;;;-0.30;99.90;;;;;;4963258;29;20062;-92
2021/01/17 00:16:23;;;;;;;39.85;18.80;;;-0.40;99.90;;;;;;4964135;28;20039;-93
2021/01/17 00:18:49;;;;;;;36.88;18.88;;;-0.30;99.90;;;;;;4963843;29;20015;-93
2021/01/17 00:21:20;;;;;;;34.67;18.98;;;-0.40;99.90;;;;;;4936498;29;20042;-94
2021/01/17 00:23:45;;;;;;;37.25;18.10;;;-0.30;99.90;;;;;;4951495;29;20051;-93
2021/01/17 00:26:11;;;;;;;36.38;19.27;;;-0.40;99.90;;;;;;4970997;29;20039;-94
2021/01/17 00:28:37;;;;;;;34.28;18.48;;;-0.40;99.90;;;;;;4947959;29;20031;-94
2021/01/17 00:31:03;;;;;;;35.60;18.25;;;-0.30;99.90;;;;;;4968271;28;20031;-94
2021/01/17 00:33:29;;;;;;;37.95;17.30;;;-0.40;99.90;;;;;;4949263;29;20039;-93
2021/01/17 00:35:55;;;;;;;36.95;19.58;;;-0.40;99.90;;;;;;4939840;29;20031;-94
2021/01/17 00:38:23;;;;;;;38.55;19.52;;;-0.40;99.90;;;;;;4960082;29;20015;-93
2021/01/17 00:40:49;;;;;;;36.15;19.33;;;-0.40;99.90;;;;;;4978849;28;20027;-95
2021/01/17 00:43:14;;;;;;;36.83;19.67;;;-0.40;99.90;;;;;;4962010;28;20019;-95
2021/01/17 00:45:40;;;;;;;37.65;20.02;;;-0.30;99.90;;;;;;4962382;28;20019;-96
2021/01/17 00:48:07;;;;;;;39.33;18.95;;;-0.40;99.90;;;;;;4961369;28;20079;-94
2021/01/17 00:50:33;;;;;;;35.80;18.83;;;-0.40;99.90;;;;;;4960716;29;20023;-94
2021/01/17 00:52:58;;;;;;;37.30;20.17;;;-0.40;99.90;;;;;;4933916;29;20031;-96
2021/01/17 00:55:27;;;;;;;37.20;19.58;;;-0.30;99.90;;;;;;4946661;29;20527;-95
2021/01/17 00:57:53;;;;;;;38.97;21.30;;;-0.30;99.90;;;;;;4956089;28;20083;-94
2021/01/17 01:00:23;;;;;;;33.75;18.80;;;-0.30;99.90;;;;;;4945690;29;20444;-95
2021/01/17 01:02:52;;;;;;;38.20;18.80;;;-0.30;99.90;;;;;;4928155;29;20059;-95
2021/01/17 01:05:19;;;;;;;33.08;17.80;;;-0.30;99.90;;;;;;4934583;29;20433;-94
2021/01/17 01:07:44;;;;;;;32.25;18.40;;;-0.40;99.90;;;;;;4949174;29;20159;-94
2021/01/17 01:10:12;;;;;;;40.72;19.38;;;-0.50;99.90;;;;;;4949077;29;20027;-96
2021/01/17 01:12:38;;;;;;;41.28;20.95;;;-0.40;99.90;;;;;;4959254;28;20023;-89
2021/01/17 01:15:08;;;;;;;33.40;17.90;;;-0.30;99.90;;;;;;4963005;28;20162;-96
2021/01/17 01:27:57;;;;;;;43.63;19.45;;;-0.40;99.90;;;;;;5482572;23;20118;-94
2021/01/17 01:30:24;;;;;;;42.03;22.20;;;-0.40;99.90;;;;;;4962689;29;20170;-96
2021/01/17 01:32:51;;;;;;;40.45;20.67;;;-0.40;99.90;;;;;;4946838;29;20038;-95
2021/01/17 01:35:20;;;;;;;33.63;17.83;;;-0.30;99.90;;;;;;4922475;29;20055;-96
2021/01/17 01:37:48;;;;;;;41.00;19.92;;;-0.40;99.90;;;;;;4926420;29;20035;-94
2021/01/17 01:40:14;;;;;;;42.45;21.27;;;-0.40;99.90;;;;;;4909127;29;20080;-95
2021/01/17 01:42:41;;;;;;;41.08;21.15;;;-0.40;99.90;;;;;;4913597;29;20047;-95
2021/01/17 01:45:09;;;;;;;36.00;20.48;;;-0.40;99.90;;;;;;4913027;29;20047;-94
2021/01/17 01:47:40;;;;;;;42.97;21.55;;;-0.40;99.90;;;;;;4908469;29;20035;-95
2021/01/17 01:50:08;;;;;;;40.67;20.75;;;-0.40;99.90;;;;;;4883401;29;20044;-92
2021/01/17 01:52:36;;;;;;;41.90;21.17;;;-0.40;99.90;;;;;;4842485;29;20082;-93
2021/01/17 01:55:05;;;;;;;37.88;20.88;;;-0.20;99.90;;;;;;4867252;29;20040;-92
2021/01/17 01:57:34;;;;;;;42.28;20.75;;;-0.50;99.90;;;;;;4883326;29;20097;-95
2021/01/17 02:00:01;;;;;;;40.55;20.95;;;-0.60;99.90;;;;;;4868309;29;20037;-93
2021/01/17 02:02:27;;;;;;;42.33;21.23;;;-0.30;99.90;;;;;;4868378;29;20025;-93
2021/01/17 02:04:53;;;;;;;40.40;20.60;;;-0.20;99.90;;;;;;4871161;29;20124;-94
2021/01/17 02:07:59;;;;;;;38.78;21.13;;;-0.20;99.90;;;;;;4886226;29;20119;-93
2021/01/17 03:00:53;;;;;;;50.22;23.90;;;-0.30;99.90;;;;;;5094002;23;20063;-94
2021/01/17 03:03:20;;;;;;;42.90;22.80;;;-0.30;99.90;;;;;;4961804;28;20023;-96
2021/01/17 03:05:48;;;;;;;47.50;23.33;;;-0.60;99.90;;;;;;4945077;28;20043;-96
2021/01/17 03:08:18;;;;;;;41.92;21.70;;;-0.20;99.90;;;;;;4964881;28;20030;-96
2021/01/17 03:10:44;;;;;;;41.58;21.30;;;0.30;99.90;;;;;;4928711;29;20116;-96
2021/01/17 03:13:13;;;;;;;40.28;21.00;;;0.40;99.90;;;;;;4925285;29;20039;-95
2021/01/17 03:15:42;;;;;;;40.55;21.70;;;-0.70;99.90;;;;;;4920789;29;20067;-96
2021/01/17 03:18:08;;;;;;;42.00;22.23;;;-0.40;99.90;;;;;;4925260;29;20021;-96
2021/01/17 03:20:33;;;;;;;49.50;22.58;;;-0.20;99.90;;;;;;4942132;29;20103;-96
2021/01/17 03:22:59;;;;;;;40.53;21.02;;;1.10;99.90;;;;;;4926507;29;20024;-95
2021/01/17 03:25:27;;;;;;;44.90;22.92;;;0.50;99.90;;;;;;4926040;29;20043;-96
2021/01/17 03:27:52;;;;;;;44.10;21.67;;;-0.20;99.90;;;;;;4939438;29;20036;-95
2021/01/17 03:30:18;;;;;;;40.75;22.05;;;-1.00;99.90;;;;;;4929453;29;20051;-94
2021/01/17 03:32:47;;;;;;;41.38;22.35;;;-0.20;99.90;;;;;;4935516;29;20032;-95
2021/01/17 03:35:14;;;;;;;45.88;22.63;;;-0.20;99.90;;;;;;4905953;29;20048;-95
2021/01/17 03:37:40;;;;;;;42.28;21.00;;;-0.20;99.90;;;;;;4891937;29;20056;-95
2021/01/17 03:40:08;;;;;;;46.55;22.50;;;-0.20;99.90;;;;;;4877777;29;20056;-96
2021/01/17 03:42:35;;;;;;;44.13;21.45;;;-0.20;99.90;;;;;;4928562;29;20024;-94
2021/01/17 03:45:01;;;;;;;41.75;21.35;;;-0.20;99.90;;;;;;4914715;29;20049;-94
2021/01/17 03:47:26;;;;;;;42.33;20.98;;;-0.30;99.90;;;;;;4918757;29;20036;-95
2021/01/17 03:49:52;;;;;;;41.83;21.10;;;-0.20;99.90;;;;;;4916007;29;20043;-94
2021/01/17 03:52:18;;;;;;;41.72;21.52;;;0.30;99.90;;;;;;4912421;29;20068;-95
2021/01/17 03:54:44;;;;;;;41.05;22.17;;;-0.20;99.90;;;;;;4940461;29;20028;-95
2021/01/17 03:57:11;;;;;;;43.47;22.05;;;-0.20;99.90;;;;;;4924733;29;20040;-95
2021/01/17 03:59:38;;;;;;;46.53;21.85;;;-0.20;99.90;;;;;;4941727;29;20076;-96
2021/01/17 04:02:03;;;;;;;37.72;21.02;;;-0.50;99.90;;;;;;4925789;29;20031;-95
2021/01/17 04:04:29;;;;;;;41.42;20.70;;;0.20;99.90;;;;;;4925220;29;20024;-96
2021/01/17 04:06:56;;;;;;;41.58;21.52;;;-0.20;99.90;;;;;;4972706;28;20031;-96
2021/01/17 04:09:25;;;;;;;49.10;22.15;;;-0.20;99.90;;;;;;4980594;28;20023;-95
2021/01/17 04:11:51;;;;;;;43.85;21.48;;;-0.70;99.90;;;;;;4966013;28;20087;-95
2021/01/17 04:14:18;;;;;;;42.80;20.10;;;-0.20;99.90;;;;;;4952255;29;20090;-94
2021/01/17 04:16:51;;;;;;;42.47;20.83;;;-0.20;99.90;;;;;;4898808;29;20065;-95
2021/01/17 04:19:17;;;;;;;45.65;20.50;;;-0.20;99.90;;;;;;4914985;29;20099;-95
2021/01/17 04:21:43;;;;;;;46.25;21.33;;;-0.20;99.90;;;;;;4897119;29;20040;-96
2021/01/17 04:24:12;;;;;;;43.28;20.95;;;-0.50;99.90;;;;;;4885050;29;20455;-96
2021/01/17 04:26:38;;;;;;;46.13;22.98;;;-0.60;99.90;;;;;;4889174;29;20121;-94
2021/01/17 04:29:07;;;;;;;44.85;22.50;;;0.20;99.90;;;;;;4884533;29;20373;-96
2021/01/17 04:31:50;;;;;;;39.20;19.52;;;-0.20;99.90;;;;;;4875326;29;20033;-96
2021/01/17 04:34:20;;;;;;;42.05;20.15;;;0.40;99.90;;;;;;4878033;29;20025;-96
2021/01/17 04:36:48;;;;;;;46.10;21.67;;;-0.10;99.90;;;;;;4903548;29;20033;-96
2021/01/17 04:39:14;;;;;;;42.33;21.85;;;0.40;99.90;;;;;;4903517;29;20017;-96
2021/01/17 04:41:45;;;;;;;44.65;22.42;;;-0.20;99.90;;;;;;4903493;29;20089;-96
2021/01/17 04:44:12;;;;;;;43.42;22.13;;;-0.20;99.90;;;;;;5039383;23;20043;-93
2021/01/17 04:46:40;;;;;;;43.25;20.10;;;0.40;99.90;;;;;;4944819;29;20020;-95
2021/01/17 04:49:08;;;;;;;41.42;21.42;;;1.10;99.90;;;;;;4944167;29;20048;-93
2021/01/17 04:51:35;;;;;;;47.53;22.58;;;-0.20;99.90;;;;;;4928236;29;20020;-96
2021/01/17 04:54:04;;;;;;;45.17;20.92;;;-0.30;99.90;;;;;;4943519;29;20024;-96
2021/01/17 04:56:42;;;;;;;43.33;21.50;;;-0.20;99.90;;;;;;4943851;29;20027;-96
2021/01/17 04:59:19;;;;;;;43.70;21.33;;;-0.20;99.90;;;;;;5013773;23;20054;-90
2021/01/17 05:01:57;;;;;;;39.13;20.77;;;-0.20;99.90;;;;;;4963992;28;20031;-96
2021/01/17 05:04:48;;;;;;;46.42;21.85;;;-0.20;99.90;;;;;;4979205;28;20027;-96
2021/01/17 05:07:24;;;;;;;44.83;20.77;;;0.00;99.90;;;;;;4965291;28;20091;-96
2021/01/17 05:10:06;;;;;;;39.22;19.75;;;-0.20;99.90;;;;;;4932863;29;20123;-96
2021/01/17 05:12:50;;;;;;;46.58;21.58;;;-0.60;99.90;;;;;;4944778;29;20031;-96
2021/01/17 05:15:21;;;;;;;47.50;21.60;;;0.00;99.90;;;;;;4953893;29;20038;-96
2021/01/17 05:17:47;;;;;;;40.42;20.55;;;-0.20;99.90;;;;;;4956406;29;20031;-96
2021/01/17 05:20:16;;;;;;;40.97;20.70;;;-0.60;99.90;;;;;;4975093;28;20015;-96
2021/01/17 05:22:44;;;;;;;45.50;21.48;;;-0.20;99.90;;;;;;4959567;28;20027;-95
2021/01/17 05:25:09;;;;;;;44.28;22.38;;;0.60;99.90;;;;;;4954573;29;20023;-96
2021/01/17 05:27:38;;;;;;;42.17;21.05;;;-0.20;99.90;;;;;;4971174;29;20023;-96
2021/01/17 05:30:06;;;;;;;44.78;22.23;;;-0.10;99.90;;;;;;4952257;29;20035;-94
2021/01/17 05:32:32;;;;;;;43.13;21.35;;;-0.10;99.90;;;;;;4933407;29;20038;-95
2021/01/17 05:34:59;;;;;;;43.95;21.45;;;-0.90;99.90;;;;;;4955060;28;20030;-94
2021/01/17 05:37:26;;;;;;;44.42;21.60;;;0.60;99.90;;;;;;4961551;29;20126;-94
2021/01/17 05:40:16;;;;;;;43.47;22.70;;;-0.10;99.90;;;;;;4971040;28;20027;-95
2021/01/17 05:42:44;;;;;;;41.63;20.63;;;-0.10;99.90;;;;;;4881802;29;20029;-94
2021/01/17 05:45:24;;;;;;;42.17;20.33;;;-0.10;99.90;;;;;;4894236;29;20155;-94
2021/01/17 05:47:56;;;;;;;42.40;20.00;;;0.00;99.90;;;;;;4857274;29;20071;-94
2021/01/17 05:50:23;;;;;;;41.08;20.42;;;-0.40;99.90;;;;;;4834737;29;20038;-94
2021/01/17 05:52:54;;;;;;;43.25;19.45;;;0.90;99.90;;;;;;4839683;29;20045;-93
2021/01/17 05:55:31;;;;;;;42.17;20.60;;;0.50;99.90;;;;;;4833026;29;20034;-94
2021/01/17 05:58:27;;;;;;;42.13;20.73;;;0.10;99.90;;;;;;4862297;29;20045;-89
2021/01/17 06:00:57;;;;;;;43.72;21.65;;;0.00;99.90;;;;;;4844858;29;20069;-94
2021/01/17 06:03:31;;;;;;;36.90;19.55;;;1.10;99.90;;;;;;4862895;29;20046;-93
2021/01/17 06:05:59;;;;;;;42.70;21.80;;;0.70;99.90;;;;;;4839816;29;20086;-95
2021/01/17 06:08:27;;;;;;;39.90;19.98;;;0.00;99.90;;;;;;4851261;29;20102;-96
2021/01/17 06:10:55;;;;;;;41.15;20.30;;;1.00;99.90;;;;;;4844817;29;20094;-94
2021/01/17 06:13:22;;;;;;;41.78;20.00;;;0.10;99.90;;;;;;4859476;29;20080;-94
2021/01/17 06:15:48;;;;;;;39.70;20.45;;;0.10;99.90;;;;;;4861526;29;20033;-95
2021/01/17 06:18:19;;;;;;;43.58;21.45;;;0.10;99.90;;;;;;4872884;29;20049;-94
2021/01/17 06:20:46;;;;;;;40.88;21.80;;;1.00;99.90;;;;;;4940328;29;20020;-95
2021/01/17 06:23:20;;;;;;;43.80;22.35;;;0.80;99.90;;;;;;4954902;28;20016;-94
2021/01/17 06:26:00;;;;;;;41.88;22.08;;;0.10;99.90;;;;;;4926882;29;20059;-96
2021/01/17 06:28:41;;;;;;;43.97;21.85;;;0.10;99.90;;;;;;4974132;28;20019;-95
2021/01/17 06:31:08;;;;;;;40.97;20.80;;;0.10;99.90;;;;;;4946491;29;20070;-94
2021/01/17 06:33:37;;;;;;;48.72;22.65;;;1.30;99.90;;;;;;4961653;29;20031;-95
2021/01/17 06:36:28;;;;;;;40.88;20.65;;;0.20;99.90;;;;;;4931957;29;20416;-93
2021/01/17 06:38:54;;;;;;;38.15;20.70;;;0.80;99.90;;;;;;4931861;29;20062;-96
2021/01/17 06:41:39;;;;;;;38.13;19.85;;;0.70;99.90;;;;;;4943230;29;20027;-95
2021/01/17 06:44:09;;;;;;;43.67;21.55;;;0.10;99.90;;;;;;4946839;29;20028;-96
2021/01/17 06:46:38;;;;;;;42.95;21.40;;;0.10;99.90;;;;;;4941229;29;20536;-94
2021/01/17 06:49:19;;;;;;;48.78;20.48;;;-0.60;99.90;;;;;;4953909;29;20330;-93
2021/01/17 06:51:46;;;;;;;43.33;21.13;;;0.10;99.90;;;;;;4946222;29;20162;-95
2021/01/17 06:54:13;;;;;;;40.35;20.30;;;1.10;99.90;;;;;;4951923;29;20138;-93
2021/01/17 06:56:42;;;;;;;49.53;21.15;;;0.90;99.90;;;;;;4934388;29;20071;-94
2021/01/17 06:59:10;;;;;;;48.17;23.05;;;-0.50;99.90;;;;;;4963550;28;20066;-95
2021/01/17 07:01:43;;;;;;;44.53;21.52;;;0.10;99.90;;;;;;4960444;29;20086;-96
2021/01/17 07:04:26;;;;;;;46.38;25.65;;;-0.30;99.90;;;;;;4941084;29;20353;-94
2021/01/17 07:07:23;;;;;;;46.13;21.33;;;0.10;99.90;;;;;;4947247;29;20027;-94
2021/01/17 07:10:08;;;;;;;42.83;21.20;;;0.10;99.90;;;;;;4884293;29;20065;-95
2021/01/17 07:13:02;;;;;;;47.80;23.60;;;0.00;99.90;;;;;;4905912;29;20024;-93
2021/01/17 07:15:32;;;;;;;49.35;23.30;;;0.10;99.90;;;;;;4878414;29;20029;-94
2021/01/17 07:18:07;;;;;;;47.38;23.73;;;0.00;99.90;;;;;;4887901;29;20036;-95
2021/01/17 07:20:40;;;;;;;47.65;23.92;;;0.10;99.90;;;;;;4864817;29;20037;-95
2021/01/17 07:23:08;;;;;;;47.15;23.10;;;1.30;99.90;;;;;;4854646;29;20034;-93
2021/01/17 07:25:41;;;;;;;48.85;22.83;;;1.40;99.90;;;;;;4832377;29;20063;-91
2021/01/17 07:28:13;;;;;;;52.65;24.63;;;0.10;99.90;;;;;;4841344;29;20019;-94
2021/01/17 07:31:01;;;;;;;45.60;23.25;;;-0.30;99.90;;;;;;4862464;29;20042;-96
2021/01/17 07:33:35;;;;;;;46.53;23.60;;;0.80;99.90;;;;;;4867938;29;20155;-96
2021/01/17 07:36:07;;;;;;;42.58;22.67;;;0.10;99.90;;;;;;4872700;29;20037;-96
2021/01/17 07:38:38;;;;;;;49.08;24.27;;;-0.10;99.90;;;;;;4829985;29;20039;-94
2021/01/17 07:41:07;;;;;;;51.60;24.65;;;0.10;99.90;;;;;;4839174;29;20030;-93
2021/01/17 07:43:41;;;;;;;55.95;27.67;;;0.10;99.90;;;;;;4871885;29;20048;-93
2021/01/17 07:46:10;;;;;;;48.95;23.35;;;0.10;99.90;;;;;;4857101;29;20560;-94
2021/01/17 07:48:39;;;;;;;50.42;25.60;;;0.20;99.90;;;;;;4912655;29;20032;-93
2021/01/17 07:51:09;;;;;;;43.47;22.80;;;0.20;99.90;;;;;;4918106;29;20035;-93
2021/01/17 07:53:38;;;;;;;45.42;21.55;;;-1.00;99.90;;;;;;4972458;28;20075;-93
2021/01/17 07:56:13;;;;;;;51.03;24.45;;;0.70;99.90;;;;;;4957038;29;20063;-94
2021/01/17 07:58:45;;;;;;;54.10;26.90;;;-0.10;99.90;;;;;;4952276;29;20077;-92
2021/01/17 08:01:28;;;;;;;;;;;0.20;99.90;;;;;;4948034;29;20047;-92
2021/01/17 08:03:54;;;;;;;47.17;23.10;;;0.20;99.90;;;;;;4949575;29;20312;-93
2021/01/17 08:06:40;;;;;;;50.30;25.02;;;0.10;99.90;;;;;;4967208;29;20054;-93
2021/01/17 08:09:07;;;;;;;45.25;23.67;;;0.10;99.90;;;;;;4959285;29;20024;-93
2021/01/17 08:11:52;;;;;;;51.75;26.58;;;0.20;99.90;;;;;;4955713;29;20043;-93
2021/01/17 08:14:36;;;;;;;54.63;26.67;;;-0.90;99.90;;;;;;4976164;29;20019;-91
2021/01/17 08:17:21;;;;;;;53.40;25.58;;;0.20;99.90;;;;;;4962473;29;20063;-90
2021/01/17 08:19:54;;;;;;;49.03;25.45;;;0.20;99.90;;;;;;4953479;29;20023;-92
2021/01/17 08:22:23;;;;;;;52.67;24.67;;;0.10;99.90;;;;;;4955936;28;20139;-95
2021/01/17 08:25:02;;;;;;;48.92;24.80;;;0.20;99.90;;;;;;4959977;29;20087;-94
2021/01/17 08:27:28;;;;;;;58.00;26.38;;;1.60;99.90;;;;;;4957422;29;20023;-94
2021/01/17 08:30:10;;;;;;;51.35;26.02;;;0.30;99.90;;;;;;4961426;29;20026;-93
2021/01/17 08:32:37;;;;;;;51.13;25.02;;;0.30;99.90;;;;;;4991477;23;20051;-96
2021/01/17 08:35:21;;;;;;;52.40;24.77;;;0.30;99.90;;;;;;4906541;29;20041;-92
2021/01/17 08:38:09;;;;;;;50.35;26.15;;;0.30;99.90;;;;;;4888969;29;20036;-93
2021/01/17 08:40:36;;;;;;;45.63;23.70;;;0.30;99.90;;;;;;4909614;29;20044;-93
2021/01/17 08:43:15;;;;;;;50.95;23.50;;;0.50;99.90;;;;;;4912935;29;20004;-93
2021/01/17 08:45:49;;;;;;;53.20;24.98;;;0.30;99.90;;;;;;4910681;29;20060;-94
2021/01/17 08:48:26;;;;;;;46.55;24.67;;;0.30;99.90;;;;;;4911916;29;20036;-94
2021/01/17 08:50:58;;;;;;;53.15;26.23;;;0.30;99.90;;;;;;4923281;29;20091;-94
2021/01/17 08:53:31;;;;;;;53.45;26.77;;;0.40;99.90;;;;;;4897629;29;20044;-96
2021/01/17 08:56:19;;;;;;;52.33;27.20;;;0.60;99.90;;;;;;4882960;29;20116;-95
2021/01/17 08:58:54;;;;;;;54.05;27.38;;;0.40;99.90;;;;;;4887912;29;20105;-94
2021/01/17 09:01:23;;;;;;;49.15;25.23;;;0.50;99.90;;;;;;4881504;29;20088;-94
2021/01/17 09:03:51;;;;;;;57.70;25.60;;;0.50;99.90;;;;;;4889049;29;20026;-94
2021/01/17 09:06:18;;;;;;;54.90;26.95;;;0.50;99.90;;;;;;4905680;29;20052;-92
2021/01/17 09:09:12;;;;;;;52.83;26.20;;;0.60;99.90;;;;;;4895312;29;20033;-95
2021/01/17 09:11:42;;;;;;;52.25;25.42;;;0.60;99.90;;;;;;4849927;29;20096;-92
2021/01/17 09:14:24;;;;;;;58.13;28.02;;;0.70;99.90;;;;;;4892545;29;20037;-94
2021/01/17 09:17:03;;;;;;;68.43;30.35;;;0.80;99.90;;;;;;4895696;29;20080;-94
2021/01/17 09:19:36;;;;;;;51.42;25.23;;;0.80;99.90;;;;;;4900479;29;20033;-94
2021/01/17 09:22:06;;;;;;;54.15;25.08;;;0.80;99.90;;;;;;4865722;29;20033;-96
2021/01/17 09:24:34;;;;;;;52.78;26.33;;;0.80;99.90;;;;;;4869306;29;20029;-96
2021/01/17 09:27:05;;;;;;;56.97;27.40;;;1.60;99.90;;;;;;4867877;29;20018;-96
2021/01/17 09:29:39;;;;;;;51.22;25.35;;;0.90;99.90;;;;;;4857994;29;20125;-96
2021/01/17 09:32:13;;;;;;;50.10;24.65;;;1.60;99.90;;;;;;4884332;29;20036;-96
2021/01/17 09:34:48;;;;;;;51.05;25.00;;;1.20;99.90;;;;;;4866774;29;20040;-96
2021/01/17 09:39:57;;;;;;;49.88;25.38;;;1.20;99.90;;;;;;5339333;23;20058;-96
2021/01/17 10:13:21;;;;;;;53.50;26.83;;;1.40;99.90;;;;;;5313320;23;19906;-96
2021/01/17 10:15:52;;;;;;;61.00;29.17;;;1.00;99.90;;;;;;4978899;28;20031;-94
2021/01/17 10:45:41;;;;;;;50.83;24.65;;;1.10;99.90;;;;;;4954791;23;20397;-96
2021/01/17 10:48:18;;;;;;;58.55;27.48;;;1.20;99.90;;;;;;4956208;29;20083;-95
2021/01/17 10:50:48;;;;;;;56.92;27.48;;;1.00;99.90;;;;;;4941313;29;20040;-96
2021/01/17 10:53:25;;;;;;;54.38;27.58;;;1.00;99.90;;;;;;4958978;29;20433;-94
2021/01/17 11:01:16;;;;;;;59.50;26.90;;;1.00;99.90;;;;;;5237042;23;20071;-96
2021/01/17 11:03:57;;;;;;;60.08;28.90;;;1.10;99.90;;;;;;4955074;29;20047;-96
2021/01/17 11:06:31;;;;;;;49.78;25.55;;;1.00;99.90;;;;;;4903958;29;20044;-95
2021/01/17 11:09:12;;;;;;;52.85;26.70;;;0.00;99.90;;;;;;4915628;29;20047;-96
2021/01/17 11:12:07;;;;;;;57.25;25.45;;;1.60;99.90;;;;;;5229017;23;20031;-96
2021/01/17 11:14:36;;;;;;;66.90;32.67;;;0.90;99.90;;;;;;4958095;29;20039;-96
2021/01/17 11:17:47;;;;;;;;;;;;;;;;;;;;;
2021/01/17 11:26:05;;;;;;;52.28;26.17;;;1.20;99.90;;;;;;5303135;23;20059;-96
2021/01/17 11:28:57;;;;;;;52.90;25.95;;;1.20;99.90;;;;;;4934343;29;20433;-96
2021/01/17 11:36:40;;;;;;;58.90;27.10;;;1.20;99.90;;;;;;5660428;23;20022;-96
2021/01/17 11:39:44;;;;;;;56.22;27.50;;;0.90;99.90;;;;;;4919040;29;20036;-96
2021/01/17 12:19:53;;;;;;;60.67;28.23;;;1.60;99.90;;;;;;5797027;23;20047;-96
2021/01/17 12:28:02;;;;;;;55.95;26.95;;;1.50;99.90;;;;;;5427122;23;20028;-93
2021/01/17 12:43:40;;;;;;;;;;;;;;;;;;;;;
2021/01/17 14:21:21;;;;;;;62.25;29.45;;;2.70;99.90;;;;;;5971400;23;21289;31
2021/01/17 14:50:26;;;;;;;53.75;28.50;;;3.00;99.90;;;;;;5081880;23;20044;-91
2021/01/17 15:04:00;;;;;;;57.45;27.65;;;2.90;99.90;;;;;;4785358;23;20043;-95
2021/01/17 15:06:55;;;;;;;57.45;26.85;;;2.90;99.90;;;;;;4939741;29;20055;-96
2021/01/17 15:09:36;;;;;;;51.50;27.45;;;3.60;99.90;;;;;;4937761;29;20093;-96
2021/01/17 16:07:00;;;;;;;89.20;33.60;;;2.70;99.90;;;;;;4980243;28;20047;-94
2021/01/17 16:09:36;;;;;;;;;;;;;;;;;;;;;
2021/01/17 16:12:19;;;;;;;75.85;34.20;;;2.70;99.90;;;;;;4980658;28;20027;-94
2021/01/17 16:14:55;;;;;;;74.30;34.55;;;2.80;99.90;;;;;;5247625;23;20050;-91
2021/01/17 16:20:55;;;;;;;65.28;29.88;;;2.90;99.90;;;;;;5677017;23;20035;-94
2021/01/17 16:23:28;;;;;;;65.60;25.45;;;2.40;99.90;;;;;;4963909;28;20050;-95
2021/01/17 16:26:05;;;;;;;;;;;;;;;;;;;;;
2021/01/17 16:28:39;;;;;;;46.85;19.70;;;2.40;99.90;;;;;;4974869;28;20043;-96
2021/01/17 16:31:05;;;;;;;43.65;20.40;;;3.20;99.90;;;;;;4959559;29;20039;-94
2021/01/17 16:33:36;;;;;;;47.65;19.55;;;3.20;99.90;;;;;;4974474;29;20054;-94
2021/01/17 16:36:02;;;;;;;;;;;3.30;99.90;;;;;;5038989;23;20111;-94
2021/01/17 16:38:37;;;;;;;46.88;21.13;;;2.70;99.90;;;;;;4954616;29;19922;-96
2021/01/17 17:40:47;;;;;;;68.35;29.65;;;3.30;99.90;;;;;;4937120;29;20047;-94
2021/01/17 17:43:17;;;;;;;59.90;29.02;;;3.30;99.90;;;;;;4923842;29;20055;-95
2021/01/17 17:45:49;;;;;;;56.85;23.15;;;3.30;99.90;;;;;;4922095;29;20029;-94
2021/01/17 17:48:18;;;;;;;50.70;24.75;;;3.30;99.90;;;;;;4919390;29;20031;-93
2021/01/17 17:50:52;;;;;;;52.13;23.67;;;3.30;99.90;;;;;;5010619;23;20094;-94
2021/01/17 17:53:47;;;;;;;52.10;21.95;;;2.60;99.90;;;;;;4958216;29;20031;-96
2021/01/17 17:57:10;;;;;;;;;;;;;;;;;;;;;
2021/01/17 18:07:52;;;;;;;;;;;3.50;99.90;;;;;;5116360;23;20055;-96
2021/01/17 18:15:35;;;;;;;43.15;17.40;;;3.60;99.90;;;;;;4630861;26;20051;-95
2021/01/17 18:18:02;;;;;;;34.75;17.85;;;3.50;99.90;;;;;;5170940;23;20042;-95
2021/01/17 18:20:28;;;;;;;51.47;17.92;;;3.60;99.90;;;;;;5040433;23;20130;-94
2021/01/17 18:23:00;;;;;;;34.58;16.15;;;3.70;99.90;;;;;;4978441;23;20056;-95
2021/01/17 18:25:33;;;;;;;37.33;15.43;;;3.70;99.90;;;;;;4935959;29;20055;-96
2021/01/17 18:28:04;;;;;;;37.92;16.50;;;3.80;99.90;;;;;;4930322;29;20035;-93
2021/01/17 18:43:29;;;;;;;29.02;13.57;;;4.00;99.90;;;;;;4980284;28;20071;-90
2021/01/17 18:48:48;;;;;;;31.38;13.02;;;4.10;99.90;;;;;;4986833;23;20062;-93
2021/01/17 18:51:43;;;;;;;23.58;11.70;;;4.10;99.90;;;;;;4945988;29;20034;-93
2021/01/17 18:54:18;;;;;;;28.33;12.43;;;4.20;99.90;;;;;;4977383;29;20076;-94
2021/01/17 18:57:09;;;;;;;25.55;12.15;;;4.60;99.90;;;;;;5019905;23;20068;-96
2021/01/17 18:59:48;;;;;;;27.00;12.32;;;4.20;99.90;;;;;;5730802;23;20979;-91
2021/01/17 19:02:46;;;;;;;23.70;12.30;;;4.10;99.90;;;;;;5401201;23;20078;-96
2021/01/17 19:05:36;;;;;;;31.08;14.13;;;4.20;99.90;;;;;;4958135;29;20046;-94
2021/01/17 19:08:15;;;;;;;31.98;12.95;;;4.10;99.90;;;;;;4961682;28;20031;-95
2021/01/17 19:13:38;;;;;;;21.42;11.80;;;4.30;99.90;;;;;;5108809;23;20063;-91
2021/01/17 19:16:07;;;;;;;27.35;11.15;;;4.20;99.90;;;;;;4974843;29;20027;-94
2021/01/17 19:35:10;;;;;;;29.73;11.93;;;4.40;99.90;;;;;;5604781;23;20043;-95
2021/01/17 19:45:26;;;;;;;38.75;12.05;;;4.40;99.90;;;;;;5138858;23;20086;-96
2021/01/17 19:51:22;;;;;;;31.80;13.05;;;4.40;99.90;;;;;;5457345;23;20106;-86
2021/01/17 19:56:31;;;;;;;27.20;12.85;;;4.40;99.90;;;;;;5228400;23;20144;-91
2021/01/17 19:59:10;;;;;;;30.60;12.30;;;4.50;99.90;;;;;;4949778;29;20023;-89
2021/01/17 20:05:48;;;;;;;31.98;14.18;;;4.30;99.90;;;;;;4904597;29;20028;-88
2021/01/17 20:08:23;;;;;;;26.75;12.55;;;4.50;99.90;;;;;;4904840;29;20029;-96
2021/01/17 20:10:51;;;;;;;25.45;12.70;;;4.50;99.90;;;;;;4955601;29;20031;-94
2021/01/17 21:07:16;;;;;;;26.77;13.90;;;4.40;99.90;;;;;;5946515;23;20386;-93
2021/01/17 22:15:43;;;;;;;21.67;10.93;;;4.30;99.90;;;;;;5469350;23;20059;-87
2021/01/17 22:47:15;;;;;;;33.97;16.98;;;4.30;99.90;;;;;;5575062;23;20059;-96
2021/01/17 23:19:15;;;;;;;42.50;16.50;;;4.60;99.90;;;;;;5916398;23;20014;-96
2021/01/17 23:24:26;;;;;;;33.17;16.52;;;4.60;99.90;;;;;;5483240;23;20043;-93
2021/01/17 23:26:55;;;;;;;38.67;16.55;;;4.50;99.90;;;;;;4963997;28;20027;-93
2021/01/17 23:29:21;;;;;;;41.72;18.00;;;4.60;99.90;;;;;;4948772;28;20034;-94
2021/01/17 23:31:50;;;;;;;34.55;17.52;;;4.60;99.90;;;;;;4978702;29;20019;-95
2021/01/17 23:45:09;;;;;;;48.90;15.90;;;4.60;99.90;;;;;;5221094;23;20079;-96
2021/01/17 23:47:35;;;;;;;36.92;16.17;;;4.50;99.90;;;;;;4939029;29;20028;-96
2021/01/17 23:50:04;;;;;;;36.25;16.40;;;4.60;99.90;;;;;;4921143;29;20047;-94
2021/01/17 23:52:30;;;;;;;38.20;17.10;;;4.70;99.90;;;;;;4900261;29;20037;-92
2021/01/17 23:54:56;;;;;;;49.40;20.23;;;4.70;99.90;;;;;;4917164;29;20043;-91
